KCAR/CAR METAR and TAF weather

Enter ICAO airport designator
Station Type Date Time Source
KCAR METAR 2020/03/31 13:54 UTC NOAA

KCAR 311354Z AUTO 01010KT 10SM CLR 02/M12 A3012 RMK AO2 SLP208 T00221117


Station Type Date Time Source
KCAR Decoded METAR 2020/03/31 13:54 UTC NOAA

CARIBOU MUNICIPAL AIRPORT, ME, United States (KCAR) 46-52N 68-01W 191M
Mar 31, 2020 - 09:54 AM EDT / 2020.03.31 1354 UTC
Wind: from the N (010 degrees) at 12 MPH (10 KT):0
Visibility: 10 mile(s):0
Sky conditions: clear
Temperature: 36.0 F (2.2 C)
Dew Point: 10.9 F (-11.7 C)
Relative Humidity: 34%
Pressure (altimeter): 30.12 in. Hg (1019 hPa)
ob: KCAR 311354Z AUTO 01010KT 10SM CLR 02/M12 A3012 RMK AO2 SLP208 T00221117
cycle: 14

Station Type Date Time Source
KCAR TAF 2020/03/31 12:22 UTC NOAA

TAF KCAR 311120Z 3112/0112 01008KT P6SM SCT100
FM311700 02009KT P6SM BKN070
FM311900 03008KT P6SM BKN024
FM312200 03007KT P6SM VCSH OVC018

Example: see airport list